Time;durP1;ratioP1;P1;durP2;ratioP2;P2;SDS_P1;SDS_P2;PMS_P1;PMS_P2;Temp;Humidity;BMP_temperature;BMP_pressure;BME280_temperature;BME280_humidity;BME280_pressure;Samples;Min_cycle;Max_cycle;Signal;HPM_P1;HPM_P2
2022/03/16 00:00:58;;;;;;;19.50;10.70;;;;;;;;;;5032174;28;20017;-90
2022/03/16 00:03:23;;;;;;;22.15;10.77;;;;;;;;;;5048740;28;20021;-90
2022/03/16 00:05:48;;;;;;;21.38;10.57;;;;;;;;;;5050884;28;20077;-89
2022/03/16 00:08:13;;;;;;;22.27;10.57;;;;;;;;;;5050642;28;20183;-90
2022/03/16 00:10:38;;;;;;;18.70;10.52;;;;;;;;;;5052290;28;20468;-88
2022/03/16 00:13:04;;;;;;;19.73;9.98;;;;;;;;;;5050312;28;20085;-89
2022/03/16 00:15:29;;;;;;;20.80;10.55;;;;;;;;;;5051668;28;20031;-87
2022/03/16 00:17:54;;;;;;;24.48;10.38;;;;;;;;;;5047303;28;20038;-88
2022/03/16 00:20:19;;;;;;;23.02;11.18;;;;;;;;;;5041407;28;20119;-88
2022/03/16 00:22:44;;;;;;;20.60;10.68;;;;;;;;;;5031784;28;20036;-90
2022/03/16 00:25:11;;;;;;;20.42;10.50;;;;;;;;;;5032064;28;20029;-89
2022/03/16 00:27:36;;;;;;;21.17;10.25;;;;;;;;;;5031965;28;20048;-86
2022/03/16 00:30:02;;;;;;;20.70;10.60;;;;;;;;;;5033068;28;20477;-88
2022/03/16 00:32:27;;;;;;;22.60;10.90;;;;;;;;;;5031386;28;20028;-88
2022/03/16 00:34:53;;;;;;;19.60;10.70;;;;;;;;;;5032832;28;20021;-88
2022/03/16 00:37:18;;;;;;;19.85;11.40;;;;;;;;;;5039408;28;20067;-87
2022/03/16 00:39:43;;;;;;;22.15;11.30;;;;;;;;;;5031397;28;20021;-86
2022/03/16 00:42:08;;;;;;;21.08;12.05;;;;;;;;;;5030567;28;20104;-88
2022/03/16 00:44:35;;;;;;;23.70;12.35;;;;;;;;;;5030722;28;20096;-88
2022/03/16 00:47:00;;;;;;;25.38;13.20;;;;;;;;;;5042707;22;20041;-85
2022/03/16 00:49:26;;;;;;;20.40;12.27;;;;;;;;;;5032390;28;20044;-84
2022/03/16 00:51:51;;;;;;;22.52;12.57;;;;;;;;;;5026967;28;20572;-85
2022/03/16 00:54:16;;;;;;;26.55;12.68;;;;;;;;;;5019479;28;20396;-86
2022/03/16 00:56:41;;;;;;;25.65;12.43;;;;;;;;;;5031712;28;20469;-85
2022/03/16 00:59:07;;;;;;;23.40;12.35;;;;;;;;;;5034499;28;20056;-84
2022/03/16 01:01:32;;;;;;;25.13;12.43;;;;;;;;;;5032532;28;20025;-86
2022/03/16 01:03:57;;;;;;;23.08;12.10;;;;;;;;;;5033769;28;20013;-86
2022/03/16 01:06:23;;;;;;;24.92;12.85;;;;;;;;;;5030604;28;20041;-84
2022/03/16 01:08:48;;;;;;;22.95;12.02;;;;;;;;;;5025045;28;20018;-84
2022/03/16 01:11:14;;;;;;;22.83;12.25;;;;;;;;;;5032089;28;20544;-84
2022/03/16 01:13:40;;;;;;;27.17;12.57;;;;;;;;;;5033312;28;20025;-81
2022/03/16 01:16:05;;;;;;;23.13;12.25;;;;;;;;;;5031787;28;20033;-79
2022/03/16 01:18:30;;;;;;;19.80;11.95;;;;;;;;;;5031877;28;20049;-80
2022/03/16 01:20:56;;;;;;;23.15;11.82;;;;;;;;;;5030669;28;20108;-80
2022/03/16 01:23:21;;;;;;;24.00;11.85;;;;;;;;;;5030237;28;20100;-81
2022/03/16 01:25:46;;;;;;;21.65;12.13;;;;;;;;;;5022578;28;20450;-80
2022/03/16 01:28:11;;;;;;;23.17;11.93;;;;;;;;;;5030483;28;20029;-79
2022/03/16 01:30:36;;;;;;;23.50;12.40;;;;;;;;;;5031710;28;20076;-78
2022/03/16 01:33:02;;;;;;;19.55;11.65;;;;;;;;;;5030685;28;20025;-81
2022/03/16 01:35:27;;;;;;;21.50;10.40;;;;;;;;;;5032351;28;20074;-83
2022/03/16 01:37:52;;;;;;;22.92;11.95;;;;;;;;;;5032006;28;20059;-81
2022/03/16 01:40:17;;;;;;;24.58;12.35;;;;;;;;;;5031083;28;20053;-85
2022/03/16 01:42:43;;;;;;;21.23;11.52;;;;;;;;;;5023837;28;20021;-84
2022/03/16 01:45:08;;;;;;;26.70;12.20;;;;;;;;;;5031408;28;20040;-85
2022/03/16 01:47:33;;;;;;;22.42;11.48;;;;;;;;;;5032104;28;20217;-85
2022/03/16 01:49:59;;;;;;;20.60;12.18;;;;;;;;;;5032572;28;20028;-82
2022/03/16 01:52:26;;;;;;;23.63;12.30;;;;;;;;;;5031712;28;20412;-83
2022/03/16 01:54:52;;;;;;;26.33;12.93;;;;;;;;;;5035784;28;20068;-81
2022/03/16 01:57:17;;;;;;;24.90;12.05;;;;;;;;;;5035621;28;20017;-80
2022/03/16 01:59:43;;;;;;;25.85;13.40;;;;;;;;;;5033407;28;20401;-80
2022/03/16 02:02:09;;;;;;;23.88;12.20;;;;;;;;;;5035822;28;20097;-80
2022/03/16 02:04:34;;;;;;;24.80;13.60;;;;;;;;;;5036321;28;20472;-82
2022/03/16 02:06:59;;;;;;;26.35;13.23;;;;;;;;;;5035920;28;20045;-81
2022/03/16 02:09:25;;;;;;;28.60;13.02;;;;;;;;;;5035756;28;20477;-85
2022/03/16 02:11:50;;;;;;;24.00;14.50;;;;;;;;;;5034618;28;20017;-79
2022/03/16 02:14:17;;;;;;;25.38;13.10;;;;;;;;;;5034509;28;20496;-80
2022/03/16 02:16:43;;;;;;;28.73;13.75;;;;;;;;;;5031747;28;20072;-82
2022/03/16 02:19:08;;;;;;;27.38;14.07;;;;;;;;;;5032032;28;20014;-84
2022/03/16 02:21:37;;;;;;;27.60;14.10;;;;;;;;;;5036506;28;20022;-84
2022/03/16 02:24:03;;;;;;;26.85;13.73;;;;;;;;;;5035237;28;20017;-81
2022/03/16 02:26:28;;;;;;;30.13;13.65;;;;;;;;;;5036351;28;20424;-81
2022/03/16 02:28:57;;;;;;;30.17;14.73;;;;;;;;;;5035246;28;20156;-81
2022/03/16 02:31:22;;;;;;;29.80;15.07;;;;;;;;;;5034156;28;20017;-82
2022/03/16 02:33:47;;;;;;;32.17;14.07;;;;;;;;;;5033655;28;20410;-80
2022/03/16 02:36:12;;;;;;;28.45;13.77;;;;;;;;;;5026930;28;20014;-85
2022/03/16 02:38:38;;;;;;;28.45;13.63;;;;;;;;;;5033992;28;20470;-82
2022/03/16 02:41:03;;;;;;;30.63;13.75;;;;;;;;;;5034900;28;20468;-79
2022/03/16 02:43:28;;;;;;;33.08;14.02;;;;;;;;;;5033498;28;20480;-78
2022/03/16 02:45:54;;;;;;;33.70;14.60;;;;;;;;;;5034351;28;20022;-80
2022/03/16 02:48:20;;;;;;;25.77;13.20;;;;;;;;;;5033154;28;20032;-83
2022/03/16 02:50:45;;;;;;;24.90;13.15;;;;;;;;;;5034835;28;20100;-82
2022/03/16 02:53:10;;;;;;;28.75;12.93;;;;;;;;;;5025363;28;20021;-79
2022/03/16 02:55:36;;;;;;;27.05;13.60;;;;;;;;;;5034511;28;20025;-82
2022/03/16 02:58:01;;;;;;;28.42;13.65;;;;;;;;;;5033143;28;20026;-82
2022/03/16 03:00:27;;;;;;;28.10;12.27;;;;;;;;;;5033403;28;20032;-82
2022/03/16 03:02:53;;;;;;;30.60;13.63;;;;;;;;;;5033125;28;20029;-85
2022/03/16 03:05:18;;;;;;;24.55;12.23;;;;;;;;;;5036247;28;20481;-82
2022/03/16 03:07:43;;;;;;;27.00;12.93;;;;;;;;;;5030773;28;20029;-81
2022/03/16 03:10:09;;;;;;;27.40;12.35;;;;;;;;;;5031149;28;20033;-83
2022/03/16 03:12:35;;;;;;;21.33;11.32;;;;;;;;;;5035071;28;20066;-83
2022/03/16 03:15:00;;;;;;;29.27;13.23;;;;;;;;;;5033487;28;20029;-80
2022/03/16 03:17:25;;;;;;;28.00;12.45;;;;;;;;;;5034857;28;20440;-83
2022/03/16 03:19:51;;;;;;;26.92;12.45;;;;;;;;;;5033992;28;20014;-82
2022/03/16 03:22:16;;;;;;;27.75;12.52;;;;;;;;;;5041214;28;20437;-83
2022/03/16 03:24:44;;;;;;;23.92;11.85;;;;;;;;;;5036670;28;20029;-81
2022/03/16 03:27:09;;;;;;;29.08;13.30;;;;;;;;;;5035716;28;20033;-82
2022/03/16 03:29:34;;;;;;;23.80;12.32;;;;;;;;;;5035342;28;20017;-82
2022/03/16 03:32:00;;;;;;;27.23;12.38;;;;;;;;;;5033420;28;20022;-84
2022/03/16 03:34:25;;;;;;;23.10;12.15;;;;;;;;;;5035680;28;20388;-83
2022/03/16 03:36:50;;;;;;;24.20;12.18;;;;;;;;;;5035226;28;20049;-85
2022/03/16 03:39:15;;;;;;;24.55;11.98;;;;;;;;;;5037283;28;20429;-85
2022/03/16 03:41:41;;;;;;;26.48;12.07;;;;;;;;;;5025989;28;20477;-84
2022/03/16 03:44:06;;;;;;;27.75;11.98;;;;;;;;;;5034149;28;20020;-83
2022/03/16 03:46:31;;;;;;;25.50;11.57;;;;;;;;;;5033616;28;20014;-79
2022/03/16 03:48:56;;;;;;;35.15;13.65;;;;;;;;;;5031738;28;20032;-79
2022/03/16 03:51:21;;;;;;;25.67;11.65;;;;;;;;;;5033510;28;20396;-78
2022/03/16 03:53:46;;;;;;;23.90;11.13;;;;;;;;;;5032873;28;20023;-79
2022/03/16 03:56:12;;;;;;;22.58;11.27;;;;;;;;;;5032765;28;20020;-80
2022/03/16 03:58:38;;;;;;;26.42;12.02;;;;;;;;;;5021940;28;21189;-80
2022/03/16 04:01:05;;;;;;;25.35;11.90;;;;;;;;;;5034754;28;20021;-86
2022/03/16 04:03:30;;;;;;;23.17;11.40;;;;;;;;;;5037264;28;20036;-85
2022/03/16 04:05:56;;;;;;;26.73;12.20;;;;;;;;;;5034988;28;20021;-81
2022/03/16 04:08:21;;;;;;;27.27;11.93;;;;;;;;;;5034270;28;20021;-82
2022/03/16 04:10:46;;;;;;;27.42;12.52;;;;;;;;;;5033751;28;20071;-84
2022/03/16 04:13:11;;;;;;;23.30;11.27;;;;;;;;;;5033679;28;20045;-82
2022/03/16 04:15:37;;;;;;;26.05;11.93;;;;;;;;;;5023516;28;20117;-81
2022/03/16 04:18:02;;;;;;;29.27;11.98;;;;;;;;;;5031892;28;20481;-85
2022/03/16 04:20:27;;;;;;;29.67;12.60;;;;;;;;;;5035054;28;20105;-84
2022/03/16 04:22:52;;;;;;;25.15;12.00;;;;;;;;;;5036908;28;20018;-88
2022/03/16 04:25:18;;;;;;;31.02;14.77;;;;;;;;;;5032234;28;20021;-80
2022/03/16 04:27:43;;;;;;;31.73;15.57;;;;;;;;;;5031220;28;20020;-79
2022/03/16 04:30:08;;;;;;;29.38;14.50;;;;;;;;;;5032522;28;20389;-78
2022/03/16 04:32:34;;;;;;;28.00;12.75;;;;;;;;;;5022648;28;20025;-80
2022/03/16 04:34:59;;;;;;;23.25;12.48;;;;;;;;;;5030660;28;20021;-81
2022/03/16 04:37:24;;;;;;;27.05;12.18;;;;;;;;;;5032297;28;20048;-81
2022/03/16 04:39:50;;;;;;;25.63;12.55;;;;;;;;;;5032789;28;20443;-80
2022/03/16 04:42:15;;;;;;;28.83;13.30;;;;;;;;;;5032132;28;20049;-84
2022/03/16 04:44:40;;;;;;;28.17;14.35;;;;;;;;;;5032287;28;20044;-82
2022/03/16 04:47:06;;;;;;;29.75;11.70;;;;;;;;;;5030664;28;20029;-85
2022/03/16 04:49:31;;;;;;;26.02;12.30;;;;;;;;;;5028347;28;20480;-86
2022/03/16 04:51:56;;;;;;;28.83;13.32;;;;;;;;;;5025653;28;20100;-86
2022/03/16 04:54:21;;;;;;;27.00;12.18;;;;;;;;;;5032400;28;20018;-87
2022/03/16 04:56:49;;;;;;;23.88;12.40;;;;;;;;;;5032377;28;20096;-87
2022/03/16 04:59:14;;;;;;;25.77;12.95;;;;;;;;;;5032033;28;20017;-80
2022/03/16 05:01:40;;;;;;;26.15;11.75;;;;;;;;;;5030938;28;20496;-84
2022/03/16 05:04:05;;;;;;;27.85;12.52;;;;;;;;;;5030901;28;20108;-84
2022/03/16 05:06:30;;;;;;;30.42;13.50;;;;;;;;;;5030409;28;20060;-84
2022/03/16 05:08:55;;;;;;;40.78;13.15;;;;;;;;;;5030646;28;20049;-85
2022/03/16 05:11:22;;;;;;;27.70;12.10;;;;;;;;;;5030569;28;20022;-83
2022/03/16 05:13:47;;;;;;;27.27;13.93;;;;;;;;;;5031925;28;20100;-83
2022/03/16 05:16:13;;;;;;;27.42;12.43;;;;;;;;;;5030426;28;20105;-82
2022/03/16 05:18:40;;;;;;;24.65;12.02;;;;;;;;;;5031349;28;20370;-83
2022/03/16 05:21:08;;;;;;;23.77;12.13;;;;;;;;;;5029504;28;20021;-87
2022/03/16 05:23:33;;;;;;;23.77;11.98;;;;;;;;;;5031665;28;20014;-88
2022/03/16 05:25:58;;;;;;;27.73;11.98;;;;;;;;;;5030387;28;20129;-87
2022/03/16 05:28:23;;;;;;;29.10;12.25;;;;;;;;;;5033830;28;20072;-84
2022/03/16 05:30:48;;;;;;;22.15;11.75;;;;;;;;;;5035697;28;20017;-81
2022/03/16 05:33:14;;;;;;;32.97;12.75;;;;;;;;;;5035610;28;20025;-80
2022/03/16 05:35:41;;;;;;;29.67;11.88;;;;;;;;;;5033653;28;20025;-84
2022/03/16 05:38:08;;;;;;;25.42;12.25;;;;;;;;;;5033863;28;20017;-86
2022/03/16 05:40:33;;;;;;;28.17;12.65;;;;;;;;;;5035877;28;20024;-82
2022/03/16 05:42:58;;;;;;;28.50;13.27;;;;;;;;;;5034389;28;20022;-83
2022/03/16 05:45:23;;;;;;;25.98;12.05;;;;;;;;;;5034378;28;20392;-81
2022/03/16 05:47:49;;;;;;;27.75;11.98;;;;;;;;;;5035117;28;20030;-81
2022/03/16 05:50:14;;;;;;;25.05;12.20;;;;;;;;;;5033765;28;20025;-81
2022/03/16 05:52:41;;;;;;;23.70;11.07;;;;;;;;;;5033722;28;20486;-80
2022/03/16 05:55:07;;;;;;;25.00;11.52;;;;;;;;;;5032550;28;20511;-80
2022/03/16 05:57:33;;;;;;;27.40;12.20;;;;;;;;;;5035011;28;20018;-88
2022/03/16 05:59:58;;;;;;;26.15;10.98;;;;;;;;;;5035079;28;20071;-82
2022/03/16 06:02:23;;;;;;;22.52;11.05;;;;;;;;;;5034824;28;20017;-81
2022/03/16 06:04:48;;;;;;;22.13;11.57;;;;;;;;;;5033650;28;20025;-83
2022/03/16 06:07:14;;;;;;;21.58;10.63;;;;;;;;;;5034655;28;20029;-81
2022/03/16 06:09:40;;;;;;;25.77;12.27;;;;;;;;;;5034787;28;20018;-86
2022/03/16 06:12:06;;;;;;;23.92;12.48;;;;;;;;;;5025959;28;20426;-85
2022/03/16 06:14:31;;;;;;;27.63;11.90;;;;;;;;;;5036478;28;20025;-83
2022/03/16 06:16:57;;;;;;;26.60;12.45;;;;;;;;;;5038468;28;20017;-84
2022/03/16 06:19:23;;;;;;;28.88;12.68;;;;;;;;;;5037717;28;20110;-86
2022/03/16 06:21:48;;;;;;;25.33;11.48;;;;;;;;;;5037179;28;20033;-85
2022/03/16 06:24:13;;;;;;;26.30;12.20;;;;;;;;;;5038657;28;20022;-86
2022/03/16 06:26:39;;;;;;;29.52;11.48;;;;;;;;;;5034941;28;20072;-86
2022/03/16 06:29:04;;;;;;;33.65;11.95;;;;;;;;;;5032807;28;20017;-85
2022/03/16 06:31:30;;;;;;;25.90;12.40;;;;;;;;;;5037143;28;20017;-87
2022/03/16 06:33:57;;;;;;;30.35;12.80;;;;;;;;;;5036246;28;20056;-85
2022/03/16 06:36:23;;;;;;;26.17;12.20;;;;;;;;;;5036754;28;20036;-84
2022/03/16 06:38:48;;;;;;;31.10;12.25;;;;;;;;;;5037117;28;20013;-86
2022/03/16 06:41:13;;;;;;;26.08;11.60;;;;;;;;;;5037415;28;20083;-82
2022/03/16 06:43:40;;;;;;;26.92;11.77;;;;;;;;;;5033281;28;20022;-86
2022/03/16 06:46:05;;;;;;;27.60;12.05;;;;;;;;;;5032086;28;20028;-83
2022/03/16 06:48:30;;;;;;;28.60;11.80;;;;;;;;;;5049571;22;20394;-78
2022/03/16 06:50:57;;;;;;;27.44;12.50;;;;;;;;;;5037637;28;20045;-80
2022/03/16 06:53:23;;;;;;;27.83;12.75;;;;;;;;;;5039329;28;20028;-80
2022/03/16 06:55:48;;;;;;;29.55;11.80;;;;;;;;;;5039200;28;20477;-80
2022/03/16 06:58:13;;;;;;;26.85;12.20;;;;;;;;;;5040689;28;20041;-80
2022/03/16 07:00:41;;;;;;;22.80;10.63;;;;;;;;;;5032929;28;20010;-80
2022/03/16 07:03:06;;;;;;;32.15;12.15;;;;;;;;;;5043911;28;20041;-79
2022/03/16 07:05:33;;;;;;;21.95;10.90;;;;;;;;;;5042801;28;20251;-81
2022/03/16 07:07:59;;;;;;;22.67;11.55;;;;;;;;;;5044217;28;20025;-80
2022/03/16 07:10:25;;;;;;;31.20;12.73;;;;;;;;;;5042039;28;20025;-81
2022/03/16 07:12:50;;;;;;;25.80;12.13;;;;;;;;;;5043247;28;20018;-80
2022/03/16 07:15:16;;;;;;;24.33;11.77;;;;;;;;;;5046658;28;20025;-79
2022/03/16 07:17:41;;;;;;;23.65;11.55;;;;;;;;;;5037617;28;20020;-81
2022/03/16 07:20:06;;;;;;;26.30;11.27;;;;;;;;;;5040115;28;20459;-79
2022/03/16 07:22:32;;;;;;;22.27;10.30;;;;;;;;;;5037910;28;20108;-81
2022/03/16 07:24:58;;;;;;;27.17;11.20;;;;;;;;;;5037616;28;20036;-81
2022/03/16 07:27:23;;;;;;;20.63;11.05;;;;;;;;;;5037556;28;20365;-81
2022/03/16 07:29:48;;;;;;;23.88;10.60;;;;;;;;;;5034798;28;20723;-80
2022/03/16 07:32:14;;;;;;;19.77;10.75;;;;;;;;;;5039860;28;20017;-78
2022/03/16 07:34:39;;;;;;;22.15;11.30;;;;;;;;;;5032318;28;20052;-80
2022/03/16 07:37:04;;;;;;;22.38;10.70;;;;;;;;;;5046418;28;20014;-80
2022/03/16 07:39:29;;;;;;;25.52;12.43;;;;;;;;;;5051933;28;20026;-80
2022/03/16 07:41:55;;;;;;;28.70;11.00;;;;;;;;;;5051809;28;20017;-81
2022/03/16 07:44:20;;;;;;;19.02;10.13;;;;;;;;;;5051955;28;20109;-82
2022/03/16 07:46:45;;;;;;;24.83;12.57;;;;;;;;;;5049492;28;20006;-81
2022/03/16 07:49:10;;;;;;;23.88;11.80;;;;;;;;;;5051005;28;20030;-80
2022/03/16 07:51:36;;;;;;;25.85;11.25;;;;;;;;;;5034046;28;20053;-80
2022/03/16 07:54:01;;;;;;;26.08;10.85;;;;;;;;;;5032106;28;20445;-82
2022/03/16 07:56:26;;;;;;;20.10;10.40;;;;;;;;;;5033544;28;20026;-81
2022/03/16 07:58:52;;;;;;;22.20;11.35;;;;;;;;;;5033541;28;20021;-81
2022/03/16 08:01:17;;;;;;;22.80;10.02;;;;;;;;;;5033310;28;20045;-82
2022/03/16 08:03:42;;;;;;;29.15;12.85;;;;;;;;;;5031584;28;20032;-81
2022/03/16 08:06:08;;;;;;;20.50;10.20;;;;;;;;;;5030626;28;20020;-81
2022/03/16 08:08:33;;;;;;;27.67;11.77;;;;;;;;;;5025094;28;20027;-81
2022/03/16 08:11:01;;;;;;;16.60;10.30;;;;;;;;;;5033658;28;20022;-82
2022/03/16 08:13:26;;;;;;;23.20;10.73;;;;;;;;;;5031997;28;20018;-84
2022/03/16 08:15:51;;;;;;;18.92;10.25;;;;;;;;;;5032881;28;20107;-79
2022/03/16 08:18:17;;;;;;;20.33;10.73;;;;;;;;;;5031210;28;20116;-79
2022/03/16 08:20:42;;;;;;;23.98;10.10;;;;;;;;;;5031087;28;20029;-87
2022/03/16 08:23:07;;;;;;;30.77;11.63;;;;;;;;;;5031661;28;20049;-85
2022/03/16 08:25:32;;;;;;;19.60;10.30;;;;;;;;;;5024684;28;20049;-81
2022/03/16 08:27:59;;;;;;;24.38;10.48;;;;;;;;;;5030179;28;20049;-85
2022/03/16 08:30:24;;;;;;;22.67;11.57;;;;;;;;;;5025648;28;20029;-81
2022/03/16 08:32:50;;;;;;;19.83;10.95;;;;;;;;;;5033112;28;20017;-79
2022/03/16 08:35:15;;;;;;;26.15;11.05;;;;;;;;;;5025602;28;20028;-79
2022/03/16 08:37:40;;;;;;;24.67;10.93;;;;;;;;;;5032249;28;20473;-83
2022/03/16 08:40:05;;;;;;;20.73;11.02;;;;;;;;;;5026561;28;20389;-84
2022/03/16 08:42:31;;;;;;;20.25;11.30;;;;;;;;;;5024626;28;20018;-79
2022/03/16 08:44:56;;;;;;;24.00;11.52;;;;;;;;;;5028491;28;20382;-82
2022/03/16 08:47:21;;;;;;;21.40;10.45;;;;;;;;;;5024303;28;20515;-81
2022/03/16 08:49:47;;;;;;;24.67;11.90;;;;;;;;;;5027581;28;20451;-82
2022/03/16 08:52:13;;;;;;;22.50;10.48;;;;;;;;;;5032314;28;20049;-84
2022/03/16 08:54:40;;;;;;;22.10;11.13;;;;;;;;;;5028312;28;20036;-85
2022/03/16 08:57:05;;;;;;;22.38;10.80;;;;;;;;;;5029606;28;20392;-84
2022/03/16 08:59:30;;;;;;;21.55;9.95;;;;;;;;;;5029731;28;20120;-84
2022/03/16 09:01:55;;;;;;;23.45;11.77;;;;;;;;;;5027883;28;20079;-82
2022/03/16 09:04:21;;;;;;;20.02;10.02;;;;;;;;;;5029355;28;20053;-86
2022/03/16 09:06:49;;;;;;;19.15;9.48;;;;;;;;;;5032174;28;20056;-83
2022/03/16 09:09:14;;;;;;;22.27;12.20;;;;;;;;;;5013602;28;20076;-82
2022/03/16 09:11:40;;;;;;;22.17;10.48;;;;;;;;;;5025679;28;20022;-80
2022/03/16 09:14:06;;;;;;;25.30;10.75;;;;;;;;;;5032311;28;20392;-82
2022/03/16 09:16:31;;;;;;;24.65;10.93;;;;;;;;;;5028328;28;20021;-80
2022/03/16 09:18:56;;;;;;;23.65;10.82;;;;;;;;;;5025981;28;20044;-81
2022/03/16 09:21:25;;;;;;;22.23;10.30;;;;;;;;;;5021605;28;20029;-84
2022/03/16 09:23:50;;;;;;;;;;;;;;;;;;5030242;28;20116;-87
2022/03/16 09:26:16;;;;;;;18.10;8.75;;;;;;;;;;5032262;28;20371;-86
2022/03/16 09:28:44;;;;;;;23.13;10.07;;;;;;;;;;5031888;28;20028;-88
2022/03/16 09:31:10;;;;;;;17.45;9.23;;;;;;;;;;5033566;28;20018;-88
2022/03/16 09:33:35;;;;;;;19.73;9.45;;;;;;;;;;5032641;28;20435;-85
2022/03/16 09:36:03;;;;;;;18.58;9.50;;;;;;;;;;5033929;28;20428;-87
2022/03/16 09:38:28;;;;;;;20.35;10.68;;;;;;;;;;5015115;28;20040;-87
2022/03/16 09:40:56;;;;;;;20.52;9.98;;;;;;;;;;5027973;28;20105;-88
2022/03/16 09:43:24;;;;;;;18.85;8.63;;;;;;;;;;5032291;28;20480;-87
2022/03/16 09:45:53;;;;;;;17.98;8.82;;;;;;;;;;5032411;28;20501;-86
2022/03/16 09:48:19;;;;;;;21.95;9.73;;;;;;;;;;5030198;28;20643;-87
2022/03/16 09:50:44;;;;;;;20.23;9.20;;;;;;;;;;5031367;28;20021;-85
2022/03/16 09:53:11;;;;;;;18.02;8.35;;;;;;;;;;5030936;28;20499;-79
2022/03/16 09:55:36;;;;;;;15.82;7.82;;;;;;;;;;5030360;28;20041;-84
2022/03/16 09:58:01;;;;;;;17.83;8.55;;;;;;;;;;5024629;28;20025;-83
2022/03/16 10:00:27;;;;;;;14.30;7.82;;;;;;;;;;5029135;28;20461;-82
2022/03/16 10:02:54;;;;;;;18.48;8.18;;;;;;;;;;5031036;28;20551;-84
2022/03/16 10:05:21;;;;;;;13.68;7.47;;;;;;;;;;5031275;28;20021;-82
2022/03/16 10:07:48;;;;;;;16.65;7.13;;;;;;;;;;5031663;28;20033;-85
2022/03/16 10:13:16;;;;;;;18.70;7.90;;;;;;;;;;5030108;28;20064;-80
2022/03/16 10:15:42;;;;;;;13.45;7.00;;;;;;;;;;5033229;28;20021;-83
2022/03/16 10:18:07;;;;;;;15.70;6.82;;;;;;;;;;5033188;28;20018;-80
2022/03/16 10:20:37;;;;;;;17.50;7.55;;;;;;;;;;5033334;28;20500;-82
2022/03/16 10:23:06;;;;;;;15.73;6.50;;;;;;;;;;5032563;28;20032;-81
2022/03/16 10:25:38;;;;;;;17.55;7.40;;;;;;;;;;5035071;28;20017;-82
2022/03/16 10:28:10;;;;;;;15.32;7.15;;;;;;;;;;5026013;28;20113;-83
2022/03/16 10:30:35;;;;;;;15.52;7.13;;;;;;;;;;5027926;28;20096;-79
2022/03/16 10:33:00;;;;;;;17.90;8.85;;;;;;;;;;5036581;28;20052;-86
2022/03/16 10:35:26;;;;;;;16.58;8.65;;;;;;;;;;5033160;28;20105;-85
2022/03/16 10:37:51;;;;;;;17.35;8.48;;;;;;;;;;5033151;28;20108;-84
2022/03/16 10:40:17;;;;;;;16.38;7.97;;;;;;;;;;5033439;28;20039;-80
2022/03/16 10:48:15;;;;;;;15.55;8.02;;;;;;;;;;5024911;28;20088;-83
2022/03/16 10:50:41;;;;;;;15.98;8.27;;;;;;;;;;5030645;28;20108;-80
2022/03/16 10:53:06;;;;;;;14.90;7.82;;;;;;;;;;5034221;28;20075;-83
2022/03/16 10:55:32;;;;;;;19.40;7.95;;;;;;;;;;5025267;28;20033;-84
2022/03/16 10:57:57;;;;;;;16.77;7.30;;;;;;;;;;5025403;28;20024;-81
2022/03/16 11:00:27;;;;;;;14.13;7.82;;;;;;;;;;5027881;28;20021;-81
2022/03/16 11:02:53;;;;;;;16.98;7.95;;;;;;;;;;5032998;28;20500;-83
2022/03/16 11:05:20;;;;;;;19.77;8.50;;;;;;;;;;5034691;28;20025;-84
2022/03/16 11:07:47;;;;;;;15.35;7.97;;;;;;;;;;5033640;28;20022;-82
2022/03/16 11:10:12;;;;;;;15.88;7.97;;;;;;;;;;5033844;28;20029;-83
2022/03/16 11:15:23;;;;;;;10.13;5.53;;;;;;;;;;5030730;28;20028;-81
2022/03/16 11:17:51;;;;;;;14.00;6.53;;;;;;;;;;5038500;28;20021;-79
2022/03/16 11:20:17;;;;;;;13.38;6.25;;;;;;;;;;5033012;28;20025;-79
2022/03/16 11:24:15;;;;;;;13.65;6.75;;;;;;;;;;5029204;28;20404;-80
2022/03/16 11:25:33;;;;;;;12.35;6.13;;;;;;;;;;5027955;28;20030;-80
2022/03/16 11:27:58;;;;;;;11.50;6.65;;;;;;;;;;5032896;28;20092;-79
2022/03/16 11:30:36;;;;;;;13.27;6.68;;;;;;;;;;5032953;28;20021;-80
2022/03/16 11:33:10;;;;;;;20.88;7.95;;;;;;;;;;5031431;28;20117;-77
2022/03/16 11:35:37;;;;;;;15.30;7.50;;;;;;;;;;5029874;28;20025;-81
2022/03/16 11:38:12;;;;;;;17.98;7.00;;;;;;;;;;5032766;28;20025;-80
2022/03/16 11:40:41;;;;;;;13.30;7.13;;;;;;;;;;5032062;28;20029;-80
2022/03/16 11:43:12;;;;;;;15.57;7.25;;;;;;;;;;5029679;28;20045;-80
2022/03/16 11:45:44;;;;;;;14.23;7.65;;;;;;;;;;5032813;28;20563;-80
2022/03/16 11:48:37;;;;;;;13.52;6.75;;;;;;;;;;5029776;28;20125;-80
2022/03/16 11:51:05;;;;;;;12.15;6.95;;;;;;;;;;5043883;28;20026;-80
2022/03/16 11:53:46;;;;;;;15.27;6.82;;;;;;;;;;5048324;28;20017;-80
2022/03/16 11:56:21;;;;;;;12.20;6.63;;;;;;;;;;5048967;28;20068;-79
2022/03/16 11:58:54;;;;;;;16.27;6.97;;;;;;;;;;5033080;28;20037;-79
2022/03/16 12:01:29;;;;;;;14.02;6.20;;;;;;;;;;5027334;28;20017;-80
2022/03/16 12:03:58;;;;;;;12.88;7.22;;;;;;;;;;5035343;28;20013;-78
2022/03/16 12:06:27;;;;;;;15.23;8.10;;;;;;;;;;5034802;28;20557;-78
2022/03/16 12:08:58;;;;;;;11.75;6.85;;;;;;;;;;5036274;28;20041;-80
2022/03/16 12:14:08;;;;;;;14.98;6.30;;;;;;;;;;5032268;28;20176;-80
2022/03/16 12:16:40;;;;;;;11.35;6.07;;;;;;;;;;5031729;28;20517;-80
2022/03/16 12:19:24;;;;;;;11.98;6.18;;;;;;;;;;5031625;28;20091;-81
2022/03/16 12:21:50;;;;;;;10.50;5.63;;;;;;;;;;5019315;28;20021;-80
2022/03/16 12:30:00;;;;;;;11.68;6.00;;;;;;;;;;5027034;28;20385;-80
2022/03/16 12:32:27;;;;;;;14.20;5.55;;;;;;;;;;5030954;28;20206;-79
2022/03/16 12:34:54;;;;;;;8.77;4.45;;;;;;;;;;5031370;28;20014;-80
2022/03/16 12:37:22;;;;;;;9.60;4.05;;;;;;;;;;5025524;28;20500;-80
2022/03/16 12:39:48;;;;;;;11.48;4.65;;;;;;;;;;5031396;28;20101;-79
2022/03/16 12:42:31;;;;;;;7.07;3.85;;;;;;;;;;5031733;28;20481;-80
2022/03/16 12:45:03;;;;;;;8.75;5.07;;;;;;;;;;5031724;28;20018;-78
2022/03/16 12:47:30;;;;;;;7.10;4.35;;;;;;;;;;5031560;28;20017;-80
2022/03/16 12:49:56;;;;;;;10.37;4.93;;;;;;;;;;5032644;28;20017;-80
2022/03/16 12:52:21;;;;;;;10.00;4.60;;;;;;;;;;5032477;28;20156;-79
2022/03/16 12:54:46;;;;;;;8.17;4.03;;;;;;;;;;5031813;28;20025;-78
2022/03/16 12:57:14;;;;;;;13.35;4.55;;;;;;;;;;5032887;28;20465;-80
2022/03/16 12:59:47;;;;;;;10.85;4.90;;;;;;;;;;5033260;28;20539;-78
2022/03/16 13:02:12;;;;;;;16.98;5.75;;;;;;;;;;5031526;28;20021;-78
2022/03/16 13:04:38;;;;;;;7.97;4.72;;;;;;;;;;5030318;28;20084;-79
2022/03/16 13:07:04;;;;;;;8.13;5.15;;;;;;;;;;5031308;28;20025;-78
2022/03/16 13:09:30;;;;;;;12.25;6.22;;;;;;;;;;5029644;28;20030;-78
2022/03/16 13:12:11;;;;;;;11.63;5.53;;;;;;;;;;5028849;28;20025;-78
2022/03/16 13:14:43;;;;;;;9.13;5.22;;;;;;;;;;5030456;28;20492;-78
2022/03/16 13:17:08;;;;;;;8.30;4.55;;;;;;;;;;5031899;28;20082;-79
2022/03/16 13:19:34;;;;;;;8.63;5.47;;;;;;;;;;5031177;28;20025;-79
2022/03/16 13:22:02;;;;;;;8.10;5.07;;;;;;;;;;5029406;28;20456;-78
2022/03/16 13:24:28;;;;;;;;;;;;;;;;;;5030253;28;20144;-79
2022/03/16 13:26:53;;;;;;;12.82;5.38;;;;;;;;;;5031199;28;20037;-78
2022/03/16 13:29:18;;;;;;;9.03;5.17;;;;;;;;;;5028587;28;20086;-78
2022/03/16 13:31:44;;;;;;;12.77;4.70;;;;;;;;;;5032940;28;20687;-79
2022/03/16 13:34:09;;;;;;;8.80;4.85;;;;;;;;;;5028045;28;20128;-79
2022/03/16 13:36:38;;;;;;;8.75;5.18;;;;;;;;;;5023839;28;20072;-80
2022/03/16 13:39:17;;;;;;;10.85;5.68;;;;;;;;;;5025961;28;20464;-79
2022/03/16 13:45:09;;;;;;;9.32;4.82;;;;;;;;;;4984955;28;20495;-79
2022/03/16 13:47:35;;;;;;;9.48;5.03;;;;;;;;;;5021148;28;20026;-79
2022/03/16 13:50:03;;;;;;;9.85;5.60;;;;;;;;;;5034442;28;20032;-79
2022/03/16 13:52:34;;;;;;;10.23;5.72;;;;;;;;;;5034885;28;20028;-77
2022/03/16 13:55:12;;;;;;;8.85;5.10;;;;;;;;;;5032257;28;20033;-79
2022/03/16 13:57:42;;;;;;;9.65;5.05;;;;;;;;;;5034583;28;20013;-79
2022/03/16 14:00:08;;;;;;;8.70;5.82;;;;;;;;;;5035238;28;20029;-80
2022/03/16 14:02:33;;;;;;;9.85;5.15;;;;;;;;;;5034435;28;20044;-78
2022/03/16 14:05:03;;;;;;;11.93;6.38;;;;;;;;;;5034608;28;20053;-78
2022/03/16 14:07:29;;;;;;;8.88;5.75;;;;;;;;;;5023619;28;20477;-79
2022/03/16 14:09:56;;;;;;;9.27;6.05;;;;;;;;;;5034637;28;20025;-79
2022/03/16 14:12:22;;;;;;;10.70;5.80;;;;;;;;;;5034395;28;20026;-78
2022/03/16 14:14:48;;;;;;;10.10;5.35;;;;;;;;;;5034497;28;20021;-79
2022/03/16 14:17:13;;;;;;;13.95;7.10;;;;;;;;;;5032947;28;20018;-78
2022/03/16 14:19:43;;;;;;;12.95;6.32;;;;;;;;;;5033294;28;20018;-78
2022/03/16 14:22:08;;;;;;;10.27;6.50;;;;;;;;;;5032520;28;20029;-78
2022/03/16 14:24:34;;;;;;;12.63;6.40;;;;;;;;;;5034025;28;20017;-78
2022/03/16 14:29:45;;;;;;;12.27;6.70;;;;;;;;;;5018197;28;20503;-81
2022/03/16 14:32:10;;;;;;;13.90;7.13;;;;;;;;;;5032751;28;20052;-79
2022/03/16 14:34:36;;;;;;;13.18;7.13;;;;;;;;;;5033838;28;20049;-79
2022/03/16 14:37:01;;;;;;;11.77;7.10;;;;;;;;;;5033820;28;20483;-80
2022/03/16 14:39:27;;;;;;;11.75;6.78;;;;;;;;;;5028610;28;20271;-81
2022/03/16 14:41:54;;;;;;;14.25;7.00;;;;;;;;;;5025780;28;20030;-80
2022/03/16 14:44:19;;;;;;;12.25;7.03;;;;;;;;;;5032531;28;20025;-79